Time;durP1;ratioP1;P1;durP2;ratioP2;P2;SDS_P1;SDS_P2;PMS_P1;PMS_P2;Temp;Humidity;BMP_temperature;BMP_pressure;BME280_temperature;BME280_humidity;BME280_pressure;Samples;Min_cycle;Max_cycle;Signal;HPM_P1;HPM_P2
2021/10/09 00:00:02;;;;;;;2.47;2.28;;;6.40;99.90;;;;;;4935206;29;20192;-66
2021/10/09 00:02:34;;;;;;;1.20;1.10;;;6.50;99.90;;;;;;4934621;29;20324;-67
2021/10/09 00:05:02;;;;;;;4.03;1.38;;;6.40;99.90;;;;;;4934627;29;20271;-67
2021/10/09 00:07:30;;;;;;;1.52;1.42;;;6.30;99.90;;;;;;4934222;29;20257;-65
2021/10/09 00:10:01;;;;;;;2.30;2.20;;;6.30;99.90;;;;;;4934901;29;20276;-66
2021/10/09 00:12:30;;;;;;;1.13;1.02;;;6.30;99.90;;;;;;4934525;29;20208;-68
2021/10/09 00:14:59;;;;;;;1.98;1.88;;;6.30;99.90;;;;;;4934556;29;20184;-67
2021/10/09 00:17:29;;;;;;;1.05;0.95;;;6.30;99.90;;;;;;4934662;29;20584;-66
2021/10/09 00:19:58;;;;;;;0.90;0.70;;;6.40;99.90;;;;;;4934358;29;20251;-66
2021/10/09 00:22:26;;;;;;;1.35;1.25;;;6.40;99.90;;;;;;4934217;29;20253;-66
2021/10/09 00:24:54;;;;;;;0.93;0.70;;;6.40;99.90;;;;;;4934405;29;20271;-66
2021/10/09 00:27:22;;;;;;;2.35;1.00;;;6.40;99.90;;;;;;4934516;29;20173;-67
2021/10/09 00:29:51;;;;;;;1.08;0.93;;;6.30;99.90;;;;;;4933153;29;20209;-67
2021/10/09 00:32:19;;;;;;;0.90;0.68;;;6.30;99.90;;;;;;4932972;29;20232;-67
2021/10/09 00:34:47;;;;;;;1.35;1.23;;;6.30;99.90;;;;;;4933477;29;20608;-65
2021/10/09 00:37:16;;;;;;;1.02;0.85;;;6.20;99.90;;;;;;4934350;29;20283;-67
2021/10/09 00:39:44;;;;;;;1.63;0.80;;;6.20;99.90;;;;;;4932862;29;20252;-67
2021/10/09 00:42:12;;;;;;;0.90;0.70;;;6.20;99.90;;;;;;4933986;29;20220;-67
2021/10/09 00:44:41;;;;;;;1.20;0.98;;;6.30;99.90;;;;;;4934347;29;20291;-66
2021/10/09 00:47:09;;;;;;;1.00;0.85;;;6.20;99.90;;;;;;4933939;29;20207;-67
2021/10/09 00:49:37;;;;;;;1.38;1.27;;;6.20;99.90;;;;;;4934457;29;20177;-66
2021/10/09 00:52:06;;;;;;;1.33;1.20;;;6.30;99.90;;;;;;4934208;29;20236;-66
2021/10/09 00:54:38;;;;;;;6.35;1.33;;;6.30;99.90;;;;;;4932749;29;20236;-66
2021/10/09 00:57:09;;;;;;;1.85;0.90;;;6.20;99.90;;;;;;4933018;29;20580;-67
2021/10/09 00:59:39;;;;;;;2.38;1.50;;;6.20;99.90;;;;;;4934126;29;20177;-66
2021/10/09 01:02:08;;;;;;;1.35;1.25;;;6.20;99.90;;;;;;4932566;29;20225;-66
2021/10/09 01:04:38;;;;;;;4.05;1.10;;;6.10;99.90;;;;;;4932669;29;20239;-67
2021/10/09 01:07:07;;;;;;;0.90;0.70;;;6.10;99.90;;;;;;4933190;29;20211;-67
2021/10/09 01:09:38;;;;;;;1.35;0.80;;;6.10;99.90;;;;;;4932736;29;20197;-67
2021/10/09 01:12:06;;;;;;;1.00;0.80;;;6.10;99.90;;;;;;4933625;29;20266;-67
2021/10/09 01:14:35;;;;;;;2.30;2.03;;;6.00;99.90;;;;;;4932684;29;20221;-67
2021/10/09 01:17:03;;;;;;;0.90;0.68;;;6.00;99.90;;;;;;4933851;29;20188;-67
2021/10/09 01:19:31;;;;;;;1.10;1.00;;;5.90;99.90;;;;;;4935264;29;20207;-66
2021/10/09 01:22:00;;;;;;;1.67;1.58;;;5.90;99.90;;;;;;4937793;29;20287;-67
2021/10/09 01:24:29;;;;;;;1.20;0.90;;;5.90;99.90;;;;;;4936711;29;20597;-66
2021/10/09 01:26:59;;;;;;;1.10;0.85;;;6.00;99.90;;;;;;4937886;29;20200;-66
2021/10/09 01:29:28;;;;;;;1.17;1.02;;;6.00;99.90;;;;;;4941095;29;20537;-67
2021/10/09 01:31:58;;;;;;;2.45;2.25;;;6.00;99.90;;;;;;4936969;29;20212;-66
2021/10/09 01:34:29;;;;;;;0.90;0.65;;;5.90;99.90;;;;;;4938671;29;20193;-67
2021/10/09 01:37:13;;;;;;;2.35;1.85;;;5.90;99.90;;;;;;4938405;29;20552;-67
2021/10/09 01:39:43;;;;;;;0.90;0.55;;;5.90;99.90;;;;;;4937005;29;20618;-67
2021/10/09 01:42:15;;;;;;;1.48;1.38;;;5.90;99.90;;;;;;4936638;29;20220;-66
2021/10/09 01:44:46;;;;;;;0.88;0.63;;;5.90;99.90;;;;;;4936643;29;20624;-67
2021/10/09 01:47:14;;;;;;;1.17;0.90;;;5.90;99.90;;;;;;4936628;29;20215;-67
2021/10/09 01:49:43;;;;;;;0.90;0.70;;;5.90;99.90;;;;;;4936324;29;20196;-65
2021/10/09 01:52:13;;;;;;;1.00;0.80;;;6.00;99.90;;;;;;4936728;29;20223;-66
2021/10/09 01:54:41;;;;;;;1.00;0.60;;;5.90;99.90;;;;;;4937458;29;20554;-66
2021/10/09 01:57:10;;;;;;;2.38;1.05;;;6.00;99.90;;;;;;4936529;29;20197;-67
2021/10/09 01:59:38;;;;;;;0.93;0.80;;;5.90;99.90;;;;;;4938093;29;20304;-67
2021/10/09 02:02:20;;;;;;;0.80;0.52;;;5.90;99.90;;;;;;4935922;29;20228;-66
2021/10/09 02:04:49;;;;;;;1.17;1.08;;;5.90;99.90;;;;;;4936260;29;20213;-66
2021/10/09 02:07:23;;;;;;;1.48;0.70;;;5.90;99.90;;;;;;4936696;29;20189;-66
2021/10/09 02:09:55;;;;;;;2.38;1.38;;;5.90;99.90;;;;;;4936514;29;20279;-66
2021/10/09 02:12:25;;;;;;;0.90;0.60;;;5.90;99.90;;;;;;4936348;29;20768;-66
2021/10/09 02:14:57;;;;;;;3.92;0.95;;;5.90;99.90;;;;;;4935356;29;20261;-66
2021/10/09 02:25:45;;;;;;;0.90;0.50;;;5.90;99.90;;;;;;4936427;29;20224;-65
2021/10/09 02:28:20;;;;;;;1.20;1.08;;;5.80;99.90;;;;;;4935316;29;20247;-66
2021/10/09 02:30:50;;;;;;;0.88;0.60;;;5.70;99.90;;;;;;4935787;29;20658;-66
2021/10/09 02:33:21;;;;;;;2.85;0.80;;;5.70;99.90;;;;;;4936539;29;20165;-67
2021/10/09 02:35:49;;;;;;;1.23;0.93;;;5.60;99.90;;;;;;4936583;29;20177;-66
2021/10/09 02:38:19;;;;;;;0.90;0.75;;;5.50;99.90;;;;;;4934787;29;20199;-67
2021/10/09 02:40:51;;;;;;;1.33;1.23;;;5.50;99.90;;;;;;4934915;29;20285;-67
2021/10/09 02:43:20;;;;;;;1.25;1.15;;;5.40;99.90;;;;;;4934706;29;20284;-66
2021/10/09 02:45:50;;;;;;;2.05;1.05;;;5.40;99.90;;;;;;4934732;29;20204;-67
2021/10/09 02:48:19;;;;;;;1.48;1.08;;;5.40;99.90;;;;;;4934725;29;20686;-67
2021/10/09 02:50:48;;;;;;;0.88;0.50;;;5.40;99.90;;;;;;4934991;29;20685;-67
2021/10/09 02:53:21;;;;;;;2.28;1.45;;;5.40;99.90;;;;;;4934908;29;20193;-66
2021/10/09 02:55:50;;;;;;;1.00;0.80;;;5.40;99.90;;;;;;4935009;29;20631;-66
2021/10/09 02:58:19;;;;;;;0.90;0.73;;;5.40;99.90;;;;;;4935880;29;20631;-65
2021/10/09 03:00:48;;;;;;;0.90;0.60;;;5.40;99.90;;;;;;4934517;29;20243;-67
2021/10/09 03:03:19;;;;;;;1.30;1.20;;;5.40;99.90;;;;;;4935561;29;20212;-67
2021/10/09 03:05:47;;;;;;;1.45;1.00;;;5.40;99.90;;;;;;4934313;29;20223;-66
2021/10/09 03:08:15;;;;;;;1.00;0.80;;;5.50;99.90;;;;;;4934523;29;20501;-66
2021/10/09 03:10:45;;;;;;;2.75;0.80;;;5.50;99.90;;;;;;4934445;29;20275;-66
2021/10/09 03:13:13;;;;;;;0.90;0.60;;;5.50;99.90;;;;;;4935416;29;20395;-67
2021/10/09 03:15:42;;;;;;;1.30;1.20;;;5.50;99.90;;;;;;4934269;29;20216;-67
2021/10/09 03:18:11;;;;;;;1.15;1.00;;;5.50;99.90;;;;;;4934253;29;20788;-67
2021/10/09 03:20:39;;;;;;;1.05;0.95;;;5.40;99.90;;;;;;4934199;29;20227;-65
2021/10/09 03:23:11;;;;;;;1.40;1.00;;;5.40;99.90;;;;;;4933934;29;20204;-65
2021/10/09 03:25:40;;;;;;;0.90;0.73;;;5.50;99.90;;;;;;4934052;29;20655;-67
2021/10/09 03:28:11;;;;;;;0.90;0.60;;;5.40;99.90;;;;;;4934194;29;20600;-68
2021/10/09 03:30:39;;;;;;;0.90;0.77;;;5.40;99.90;;;;;;4933971;29;20207;-66
2021/10/09 03:33:08;;;;;;;2.85;1.55;;;5.40;99.90;;;;;;4934988;29;20221;-66
2021/10/09 03:35:36;;;;;;;4.47;2.40;;;5.40;99.90;;;;;;4934422;29;20189;-65
2021/10/09 03:38:04;;;;;;;0.90;0.63;;;5.40;99.90;;;;;;4934202;29;20199;-67
2021/10/09 03:40:34;;;;;;;1.00;0.60;;;5.40;99.90;;;;;;4934638;29;20216;-67
2021/10/09 03:43:07;;;;;;;0.90;0.60;;;5.40;99.90;;;;;;4934112;29;20308;-66
2021/10/09 03:45:41;;;;;;;1.23;1.13;;;5.40;99.90;;;;;;4934224;29;20232;-67
2021/10/09 03:48:18;;;;;;;0.90;0.57;;;5.40;99.90;;;;;;4935094;29;20542;-66
2021/10/09 03:53:35;;;;;;;1.58;1.23;;;5.40;99.90;;;;;;4933469;29;20220;-67
2021/10/09 03:56:04;;;;;;;1.00;0.63;;;5.50;99.90;;;;;;4933536;29;20204;-66
2021/10/09 03:58:39;;;;;;;1.33;1.23;;;5.40;99.90;;;;;;4933389;29;20267;-67
2021/10/09 04:01:08;;;;;;;1.45;1.35;;;5.40;99.90;;;;;;4934634;29;20236;-66
2021/10/09 04:03:37;;;;;;;1.33;1.00;;;5.40;99.90;;;;;;4933363;29;20757;-67
2021/10/09 04:06:05;;;;;;;0.90;0.77;;;5.30;99.90;;;;;;4933406;29;20275;-67
2021/10/09 04:08:34;;;;;;;1.60;1.50;;;5.30;99.90;;;;;;4933671;29;20271;-67
2021/10/09 04:11:03;;;;;;;0.90;0.60;;;5.30;99.90;;;;;;4934775;29;20248;-66
2021/10/09 04:13:31;;;;;;;1.05;0.88;;;5.20;99.90;;;;;;4933548;29;20193;-66
2021/10/09 04:16:01;;;;;;;1.20;0.80;;;5.20;99.90;;;;;;4934936;29;20165;-67
2021/10/09 04:18:31;;;;;;;6.57;1.45;;;5.10;99.90;;;;;;4933129;29;20203;-66
2021/10/09 04:20:59;;;;;;;0.90;0.63;;;5.00;99.90;;;;;;4934416;29;20204;-67
2021/10/09 04:23:27;;;;;;;3.83;1.25;;;5.00;99.90;;;;;;4933076;29;20682;-66
2021/10/09 04:25:56;;;;;;;3.58;1.48;;;5.00;99.90;;;;;;4933003;29;20219;-67
2021/10/09 04:28:24;;;;;;;1.00;0.70;;;4.90;99.90;;;;;;4933295;29;20283;-67
2021/10/09 04:30:52;;;;;;;0.90;0.60;;;4.70;99.90;;;;;;4934090;29;20555;-67
2021/10/09 04:33:20;;;;;;;1.00;0.77;;;4.60;99.90;;;;;;4936286;29;20268;-66
2021/10/09 04:35:50;;;;;;;1.48;1.38;;;4.60;99.90;;;;;;4935894;29;20193;-67
2021/10/09 04:38:18;;;;;;;0.90;0.60;;;4.50;99.90;;;;;;4933386;29;20689;-66
2021/10/09 04:40:47;;;;;;;2.95;1.55;;;4.40;99.90;;;;;;4932789;29;20203;-67
2021/10/09 04:43:15;;;;;;;1.50;1.02;;;4.40;99.90;;;;;;4934121;29;20639;-67
2021/10/09 04:45:45;;;;;;;1.10;0.90;;;4.30;99.90;;;;;;4932965;29;20446;-65
2021/10/09 04:48:14;;;;;;;7.28;1.25;;;4.20;99.90;;;;;;4932830;29;20288;-67
2021/10/09 04:50:43;;;;;;;1.77;1.27;;;4.20;99.90;;;;;;4932938;29;20205;-66
2021/10/09 04:53:12;;;;;;;0.90;0.60;;;4.20;99.90;;;;;;4932234;29;20537;-67
2021/10/09 04:55:40;;;;;;;0.90;0.60;;;4.20;99.90;;;;;;4934414;29;20177;-66
2021/10/09 04:58:09;;;;;;;2.25;0.77;;;4.20;99.90;;;;;;4933166;29;20554;-66
2021/10/09 05:00:37;;;;;;;0.82;0.50;;;4.30;99.90;;;;;;4933081;29;20466;-67
2021/10/09 05:03:06;;;;;;;0.80;0.60;;;4.30;99.90;;;;;;4934002;29;20232;-66
2021/10/09 05:05:35;;;;;;;2.55;2.35;;;4.40;99.90;;;;;;4932943;29;20217;-66
2021/10/09 05:08:03;;;;;;;1.00;0.80;;;4.40;99.90;;;;;;4934327;29;20704;-67
2021/10/09 05:10:34;;;;;;;1.20;1.02;;;4.40;99.90;;;;;;4932751;29;20332;-67
2021/10/09 05:13:07;;;;;;;0.90;0.65;;;4.40;99.90;;;;;;4932336;29;20216;-66
2021/10/09 05:15:41;;;;;;;0.80;0.60;;;4.40;99.90;;;;;;4932488;29;20220;-66
2021/10/09 05:18:13;;;;;;;1.10;0.80;;;4.40;99.90;;;;;;4932422;29;20219;-66
2021/10/09 05:20:42;;;;;;;1.23;1.13;;;4.30;99.90;;;;;;4932521;29;20188;-66
2021/10/09 05:23:15;;;;;;;0.80;0.50;;;4.40;99.90;;;;;;4932584;29;20205;-66
2021/10/09 05:25:49;;;;;;;0.93;0.82;;;4.40;99.90;;;;;;4932595;29;20213;-65
2021/10/09 05:28:23;;;;;;;1.20;1.02;;;4.40;99.90;;;;;;4932607;29;20204;-65
2021/10/09 05:30:56;;;;;;;1.00;0.80;;;4.40;99.90;;;;;;4932483;29;20670;-66
2021/10/09 05:33:36;;;;;;;1.63;1.52;;;4.40;99.90;;;;;;4932604;29;20195;-66
2021/10/09 05:36:06;;;;;;;0.90;0.70;;;4.40;99.90;;;;;;4932396;29;20221;-67
2021/10/09 05:38:34;;;;;;;1.52;1.42;;;4.50;99.90;;;;;;4932385;29;20264;-66
2021/10/09 05:41:05;;;;;;;0.90;0.77;;;4.50;99.90;;;;;;4932140;29;20204;-66
2021/10/09 05:43:38;;;;;;;2.38;1.45;;;4.40;99.90;;;;;;4932521;29;20193;-67
2021/10/09 05:46:08;;;;;;;1.60;1.50;;;4.40;99.90;;;;;;4932204;29;20216;-65
2021/10/09 05:48:38;;;;;;;1.30;1.20;;;4.40;99.90;;;;;;4932403;29;20200;-66
2021/10/09 05:51:09;;;;;;;3.28;1.25;;;4.40;99.90;;;;;;4932542;29;20621;-65
2021/10/09 05:53:59;;;;;;;1.95;1.00;;;4.40;99.90;;;;;;4932222;29;20199;-65
2021/10/09 05:56:40;;;;;;;0.90;0.60;;;4.50;99.90;;;;;;4935206;29;20667;-67
2021/10/09 05:59:29;;;;;;;1.63;1.52;;;4.60;99.90;;;;;;4934549;29;20200;-66
2021/10/09 07:00:37;;;;;;;2.25;1.85;;;6.40;99.90;;;;;;4954044;28;20196;-67
2021/10/09 07:03:07;;;;;;;7.90;2.25;;;6.50;99.90;;;;;;4953731;28;20224;-67
2021/10/09 07:05:41;;;;;;;0.90;0.60;;;6.60;99.90;;;;;;4954016;28;20255;-67
2021/10/09 07:08:29;;;;;;;2.65;1.40;;;6.70;99.90;;;;;;4930888;29;20197;-67
2021/10/09 07:11:22;;;;;;;1.00;0.90;;;6.80;99.90;;;;;;4934686;29;20219;-67
2021/10/09 07:13:50;;;;;;;2.10;1.30;;;7.00;99.90;;;;;;4935398;29;20239;-67
2021/10/09 07:16:19;;;;;;;2.20;2.10;;;7.00;99.90;;;;;;4935766;29;20252;-65
2021/10/09 07:18:49;;;;;;;1.20;0.93;;;7.10;99.90;;;;;;4936321;29;20197;-67
2021/10/09 07:21:17;;;;;;;0.90;0.60;;;7.20;99.90;;;;;;4934544;29;20216;-67
2021/10/09 07:23:45;;;;;;;0.90;0.50;;;7.30;99.90;;;;;;4934241;29;20193;-68
2021/10/09 07:26:14;;;;;;;1.70;1.60;;;7.40;99.90;;;;;;4934374;29;20223;-67
2021/10/09 07:28:42;;;;;;;0.90;0.70;;;7.50;99.90;;;;;;4935908;29;20259;-67
2021/10/09 07:31:10;;;;;;;4.43;2.47;;;7.60;99.90;;;;;;4934214;29;20212;-67
2021/10/09 07:33:38;;;;;;;2.00;1.02;;;7.60;99.90;;;;;;4934236;29;20205;-67
2021/10/09 07:36:08;;;;;;;3.00;2.25;;;7.80;99.90;;;;;;4935564;29;20538;-67
2021/10/09 07:38:36;;;;;;;2.05;0.85;;;7.90;99.90;;;;;;4935309;29;20195;-67
2021/10/09 07:41:04;;;;;;;1.70;1.20;;;8.10;99.90;;;;;;4935654;29;20197;-66
2021/10/09 07:43:32;;;;;;;3.50;2.20;;;8.10;99.90;;;;;;4933858;29;20204;-68
2021/10/09 07:46:00;;;;;;;1.20;0.88;;;8.20;99.90;;;;;;4935283;29;20223;-67
2021/10/09 07:48:29;;;;;;;1.80;1.50;;;8.20;99.90;;;;;;4935297;29;20248;-67
2021/10/09 07:50:57;;;;;;;1.13;0.80;;;8.40;99.90;;;;;;4935199;29;20252;-67
2021/10/09 07:53:26;;;;;;;1.10;1.00;;;8.50;99.90;;;;;;4935102;29;20546;-68
2021/10/09 07:55:54;;;;;;;1.77;1.10;;;8.60;99.90;;;;;;4935500;29;20185;-66
2021/10/09 07:58:22;;;;;;;3.80;0.70;;;8.80;99.90;;;;;;4934863;29;20201;-67
2021/10/09 08:00:50;;;;;;;1.25;0.68;;;8.90;99.90;;;;;;4935396;29;20200;-67
2021/10/09 08:03:23;;;;;;;4.22;1.80;;;9.00;99.90;;;;;;4935007;29;20554;-66
2021/10/09 08:05:53;;;;;;;2.55;2.10;;;9.10;99.90;;;;;;4935295;29;20256;-68
2021/10/09 08:08:21;;;;;;;1.45;1.27;;;9.20;99.90;;;;;;4933383;29;20233;-67
2021/10/09 08:10:53;;;;;;;18.23;2.08;;;9.30;99.90;;;;;;4933260;29;20240;-67
2021/10/09 08:13:21;;;;;;;1.10;0.60;;;9.40;99.90;;;;;;4932267;29;20189;-67
2021/10/09 08:15:49;;;;;;;1.70;1.07;;;9.60;99.90;;;;;;4934708;29;20957;-67
2021/10/09 08:18:17;;;;;;;1.10;0.80;;;9.60;99.90;;;;;;4934708;29;20425;-68
2021/10/09 08:20:49;;;;;;;2.38;1.67;;;9.70;99.90;;;;;;4934310;29;20201;-67
2021/10/09 08:23:20;;;;;;;1.48;1.10;;;9.80;99.90;;;;;;4934434;29;20181;-68
2021/10/09 08:36:54;;;;;;;1.43;1.00;;;10.30;99.90;;;;;;4936522;29;20441;-67
2021/10/09 08:39:22;;;;;;;1.97;1.17;;;10.40;99.90;;;;;;4936721;29;20496;-67
2021/10/09 08:41:51;;;;;;;1.47;1.00;;;10.50;99.90;;;;;;4935440;29;20461;-66
2021/10/09 08:44:20;;;;;;;1.30;0.83;;;10.60;99.90;;;;;;4935436;29;20434;-66
2021/10/09 08:46:49;;;;;;;1.60;1.30;;;10.70;99.90;;;;;;4934531;29;20532;-66
2021/10/09 08:49:17;;;;;;;1.53;1.07;;;10.80;99.90;;;;;;4934254;29;20555;-67
2021/10/09 08:51:51;;;;;;;0.90;0.67;;;10.90;99.90;;;;;;4934037;29;20444;-67
2021/10/09 08:54:19;;;;;;;1.10;0.80;;;11.00;99.90;;;;;;4933797;29;20447;-66
2021/10/09 08:56:49;;;;;;;5.10;1.67;;;11.10;99.90;;;;;;4932613;29;20472;-67
2021/10/09 08:59:23;;;;;;;3.03;1.33;;;11.20;99.90;;;;;;4934003;29;20429;-67
2021/10/09 09:02:05;;;;;;;2.13;1.53;;;11.20;99.90;;;;;;4933794;29;20530;-66
2021/10/09 09:04:49;;;;;;;6.70;1.13;;;11.30;99.90;;;;;;4935498;29;20503;-68
2021/10/09 09:07:48;;;;;;;1.83;0.90;;;11.40;99.90;;;;;;4933182;29;20528;-67
2021/10/09 09:27:36;;;;;;;0.80;0.50;;;11.70;99.90;;;;;;4865197;29;20439;-68
2021/10/09 09:30:55;;;;;;;3.03;1.00;;;11.90;99.90;;;;;;4934579;29;20427;-67
2021/10/09 09:36:28;;;;;;;0.90;0.50;;;12.00;99.90;;;;;;4921057;29;20936;-69
2021/10/09 09:39:04;;;;;;;1.00;0.87;;;12.20;99.90;;;;;;4936839;29;20793;-70
2021/10/09 09:41:46;;;;;;;1.17;0.90;;;12.30;99.90;;;;;;4938858;29;20507;-66
2021/10/09 09:44:17;;;;;;;1.33;0.90;;;12.40;99.90;;;;;;4937399;29;20510;-68
2021/10/09 09:47:01;;;;;;;2.40;0.80;;;12.50;99.90;;;;;;4938593;29;20964;-67
2021/10/09 09:49:51;;;;;;;2.80;1.23;;;12.70;99.90;;;;;;4938168;29;20463;-67
2021/10/09 09:52:21;;;;;;;1.33;1.00;;;12.70;99.90;;;;;;4938274;29;20463;-66
2021/10/09 09:54:49;;;;;;;1.33;0.70;;;12.70;99.90;;;;;;4937787;29;20937;-67
2021/10/09 09:57:20;;;;;;;0.90;0.60;;;12.80;99.90;;;;;;4937734;29;20432;-66
2021/10/09 09:59:52;;;;;;;1.00;0.60;;;12.80;99.90;;;;;;4937830;29;20479;-68
2021/10/09 10:02:21;;;;;;;0.90;0.60;;;12.80;99.90;;;;;;4938690;29;20953;-67
2021/10/09 10:04:51;;;;;;;1.13;1.03;;;12.90;99.90;;;;;;4938732;29;20550;-68
2021/10/09 10:07:21;;;;;;;1.27;1.07;;;12.90;99.90;;;;;;4938397;29;20420;-67
2021/10/09 10:09:49;;;;;;;1.20;1.00;;;12.90;99.90;;;;;;4937846;29;20480;-67
2021/10/09 10:12:18;;;;;;;1.93;0.90;;;13.00;99.90;;;;;;4937791;29;20415;-66
2021/10/09 10:14:48;;;;;;;1.53;0.70;;;13.20;99.90;;;;;;4937884;29;20922;-66
2021/10/09 10:17:36;;;;;;;2.50;2.30;;;13.30;99.90;;;;;;4936661;29;20952;-67
2021/10/09 10:20:10;;;;;;;1.37;1.27;;;13.40;99.90;;;;;;4937748;29;20807;-67
2021/10/09 10:22:59;;;;;;;1.20;0.80;;;13.50;99.90;;;;;;4937537;29;20444;-68
2021/10/09 10:25:30;;;;;;;1.30;0.60;;;13.40;99.90;;;;;;4937759;29;20725;-67
2021/10/09 10:28:00;;;;;;;1.10;0.73;;;13.50;99.90;;;;;;4937528;29;20746;-66
2021/10/09 10:30:32;;;;;;;1.20;0.93;;;13.60;99.90;;;;;;4937500;29;20408;-66
2021/10/09 10:33:40;;;;;;;1.90;1.13;;;13.70;99.90;;;;;;4938567;29;20504;-67
2021/10/09 10:36:12;;;;;;;1.10;0.70;;;13.90;99.90;;;;;;4936963;29;20410;-67
2021/10/09 10:38:53;;;;;;;1.20;0.90;;;13.90;99.90;;;;;;4937253;29;20519;-69
2021/10/09 10:41:43;;;;;;;1.30;1.17;;;13.80;99.90;;;;;;4937740;29;20415;-68
2021/10/09 10:44:26;;;;;;;0.90;0.50;;;13.90;99.90;;;;;;4938527;29;20928;-67
2021/10/09 10:47:00;;;;;;;1.10;0.97;;;13.90;99.90;;;;;;4937745;29;20518;-67
2021/10/09 10:49:48;;;;;;;1.00;0.70;;;14.00;99.90;;;;;;4937480;29;20500;-66
2021/10/09 10:52:54;;;;;;;1.50;1.40;;;13.90;99.90;;;;;;4935649;29;20468;-68
2021/10/09 10:55:22;;;;;;;1.30;1.20;;;14.00;99.90;;;;;;4936993;29;20420;-68
2021/10/09 10:58:19;;;;;;;1.13;0.87;;;13.80;99.90;;;;;;4936731;29;20421;-68
2021/10/09 11:01:16;;;;;;;1.47;1.10;;;13.80;99.90;;;;;;4935522;29;20875;-67
2021/10/09 11:03:48;;;;;;;1.70;1.30;;;13.70;99.90;;;;;;4937336;29;20508;-69
2021/10/09 11:06:19;;;;;;;1.00;0.73;;;13.70;99.90;;;;;;4937740;29;20428;-68
2021/10/09 11:08:49;;;;;;;1.40;1.00;;;13.90;99.90;;;;;;4937502;29;20468;-67
2021/10/09 11:11:32;;;;;;;1.40;0.67;;;13.90;99.90;;;;;;4936464;29;20459;-66
2021/10/09 11:14:01;;;;;;;2.13;1.57;;;13.90;99.90;;;;;;4936257;29;20452;-68
2021/10/09 11:16:29;;;;;;;1.00;0.70;;;13.90;99.90;;;;;;4936539;29;20391;-67
2021/10/09 11:18:58;;;;;;;1.67;1.17;;;13.90;99.90;;;;;;4936322;29;20838;-70
2021/10/09 11:21:26;;;;;;;2.20;1.53;;;13.90;99.90;;;;;;4936376;29;20783;-68
2021/10/09 11:23:59;;;;;;;1.10;0.70;;;14.10;99.90;;;;;;4935828;29;20460;-68
2021/10/09 11:26:28;;;;;;;1.00;0.80;;;14.20;99.90;;;;;;4936145;29;20417;-68
2021/10/09 11:29:00;;;;;;;1.73;1.63;;;14.30;99.90;;;;;;4935843;29;21019;-68
2021/10/09 11:31:29;;;;;;;1.70;1.00;;;14.30;99.90;;;;;;4934911;29;20441;-69
2021/10/09 11:34:00;;;;;;;1.20;0.73;;;14.30;99.90;;;;;;4938104;29;20446;-69
2021/10/09 11:36:30;;;;;;;3.40;1.93;;;14.30;99.90;;;;;;4937671;29;20432;-67
2021/10/09 11:39:07;;;;;;;1.57;1.13;;;14.40;99.90;;;;;;4935889;29;20453;-67
2021/10/09 11:41:35;;;;;;;2.13;1.73;;;14.40;99.90;;;;;;4935928;29;21073;-67
2021/10/09 11:44:19;;;;;;;1.07;0.80;;;14.50;99.90;;;;;;4935859;29;20456;-68
2021/10/09 11:47:05;;;;;;;1.70;1.60;;;14.40;99.90;;;;;;4935443;29;20452;-68
2021/10/09 11:55:24;;;;;;;2.90;1.33;;;14.40;99.90;;;;;;4895360;29;20450;-68
2021/10/09 11:57:52;;;;;;;1.33;1.10;;;14.50;99.90;;;;;;4895098;29;20427;-67
2021/10/09 12:00:42;;;;;;;1.20;0.90;;;14.50;99.90;;;;;;4914206;29;20423;-69
2021/10/09 12:03:33;;;;;;;1.33;1.10;;;14.50;99.90;;;;;;4936231;29;20503;-67
2021/10/09 12:06:07;;;;;;;1.10;0.70;;;14.50;99.90;;;;;;4936723;29;20403;-67
2021/10/09 12:08:46;;;;;;;1.27;1.17;;;14.60;99.90;;;;;;4935427;29;20484;-67
2021/10/09 12:11:23;;;;;;;5.63;1.97;;;14.60;99.90;;;;;;4935159;29;20411;-68
2021/10/09 12:13:56;;;;;;;1.00;0.80;;;14.60;99.90;;;;;;4934921;29;20965;-68
2021/10/09 12:16:28;;;;;;;1.37;1.27;;;14.70;99.90;;;;;;4935014;29;20804;-67
2021/10/09 12:18:59;;;;;;;1.20;1.10;;;14.70;99.90;;;;;;4934940;29;20900;-67
2021/10/09 12:21:29;;;;;;;2.13;1.90;;;14.80;99.90;;;;;;4934963;29;20448;-67
2021/10/09 12:23:58;;;;;;;0.97;0.70;;;14.90;99.90;;;;;;4934706;29;20391;-67
2021/10/09 12:26:28;;;;;;;3.10;1.10;;;15.00;99.90;;;;;;4934844;29;20474;-68
2021/10/09 12:29:07;;;;;;;1.77;0.93;;;15.10;99.90;;;;;;4934749;29;20444;-67
2021/10/09 12:31:38;;;;;;;3.30;2.63;;;15.10;99.90;;;;;;4935601;29;20419;-68
2021/10/09 12:34:29;;;;;;;1.67;1.57;;;15.00;99.90;;;;;;4935235;29;20441;-67
2021/10/09 12:37:18;;;;;;;1.50;1.07;;;14.90;99.90;;;;;;4935407;29;20759;-67
2021/10/09 12:39:48;;;;;;;1.57;0.80;;;15.00;99.90;;;;;;4934792;29;20396;-67
2021/10/09 12:42:18;;;;;;;1.00;0.50;;;15.10;99.90;;;;;;4934682;29;20434;-66
2021/10/09 12:44:46;;;;;;;1.03;0.60;;;15.20;99.90;;;;;;4934722;29;20399;-67
2021/10/09 12:47:14;;;;;;;2.60;2.20;;;15.20;99.90;;;;;;4935594;29;20495;-68
2021/10/09 12:49:42;;;;;;;1.43;0.70;;;15.20;99.90;;;;;;4940560;29;20472;-67
2021/10/09 12:52:10;;;;;;;1.57;1.13;;;15.30;99.90;;;;;;4936277;29;20453;-67
2021/10/09 12:54:38;;;;;;;1.93;0.93;;;15.30;99.90;;;;;;4935670;29;20432;-68
2021/10/09 12:57:08;;;;;;;0.90;0.67;;;15.30;99.90;;;;;;4936971;29;20786;-67
2021/10/09 12:59:38;;;;;;;0.90;0.50;;;15.40;99.90;;;;;;4935473;29;20425;-67
2021/10/09 13:02:07;;;;;;;2.57;0.80;;;15.40;99.90;;;;;;4935148;29;20444;-69
2021/10/09 13:04:35;;;;;;;2.07;1.30;;;15.30;99.90;;;;;;4935889;29;20407;-67
2021/10/09 13:07:03;;;;;;;1.50;1.00;;;15.10;99.90;;;;;;4936772;29;20399;-67
2021/10/09 13:09:32;;;;;;;2.30;2.20;;;15.00;99.90;;;;;;4936566;29;20471;-67
2021/10/09 13:12:02;;;;;;;1.90;1.80;;;14.90;99.90;;;;;;4936473;29;20447;-67
2021/10/09 13:14:30;;;;;;;2.37;1.40;;;14.90;99.90;;;;;;4935674;29;20429;-67
2021/10/09 13:17:00;;;;;;;1.40;0.97;;;14.90;99.90;;;;;;4934933;29;20949;-68
2021/10/09 13:19:28;;;;;;;2.13;1.97;;;14.90;99.90;;;;;;4934908;29;20483;-68
2021/10/09 13:21:56;;;;;;;0.90;0.60;;;14.90;99.90;;;;;;4937820;29;20487;-68
2021/10/09 13:24:25;;;;;;;2.00;1.90;;;14.90;99.90;;;;;;4936447;29;20433;-67
2021/10/09 13:26:53;;;;;;;2.77;1.13;;;14.90;99.90;;;;;;4937338;29;20395;-66
2021/10/09 13:29:21;;;;;;;1.30;0.73;;;14.90;99.90;;;;;;4938214;29;20518;-67
2021/10/09 13:31:49;;;;;;;1.30;0.83;;;14.90;99.90;;;;;;4937537;29;20434;-69
2021/10/09 13:34:19;;;;;;;1.07;0.70;;;14.90;99.90;;;;;;4936595;29;20958;-67
2021/10/09 13:36:48;;;;;;;1.73;1.50;;;15.00;99.90;;;;;;4937249;29;20486;-68
2021/10/09 13:39:16;;;;;;;1.10;0.93;;;15.10;99.90;;;;;;4935645;29;20815;-69
2021/10/09 13:41:44;;;;;;;1.53;1.20;;;15.20;99.90;;;;;;4936266;29;20467;-69
2021/10/09 13:44:12;;;;;;;1.50;0.70;;;15.20;99.90;;;;;;4935808;29;20854;-69
2021/10/09 13:46:41;;;;;;;2.40;1.03;;;15.20;99.90;;;;;;4935566;29;20513;-67
2021/10/09 13:49:09;;;;;;;3.53;1.90;;;15.20;99.90;;;;;;4934364;29;20969;-68
2021/10/09 13:51:38;;;;;;;2.20;2.10;;;15.30;99.90;;;;;;4934361;29;21048;-68
2021/10/09 13:54:07;;;;;;;2.53;1.33;;;15.30;99.90;;;;;;4934182;29;20425;-68
2021/10/09 13:56:35;;;;;;;1.17;1.07;;;15.30;99.90;;;;;;4934304;29;20440;-67
2021/10/09 13:59:03;;;;;;;1.73;1.00;;;15.40;99.90;;;;;;4933038;29;20801;-69
2021/10/09 14:01:41;;;;;;;1.93;1.47;;;15.40;99.90;;;;;;4933760;29;20483;-69
2021/10/09 14:04:10;;;;;;;1.10;0.70;;;15.40;99.90;;;;;;4933277;29;20429;-67
2021/10/09 14:06:39;;;;;;;1.33;1.23;;;15.40;99.90;;;;;;4933714;29;20511;-68
2021/10/09 14:09:08;;;;;;;2.50;2.17;;;15.40;99.90;;;;;;4933709;29;20984;-69
2021/10/09 14:11:37;;;;;;;2.13;1.30;;;15.30;99.90;;;;;;4933643;29;20568;-68
2021/10/09 14:14:05;;;;;;;0.90;0.50;;;15.30;99.90;;;;;;4933185;29;20483;-67
2021/10/09 14:16:33;;;;;;;1.50;1.17;;;15.20;99.90;;;;;;4933649;29;20490;-68
2021/10/09 14:19:02;;;;;;;1.83;0.60;;;15.20;99.90;;;;;;4933838;29;20439;-68
2021/10/09 14:21:31;;;;;;;1.57;0.60;;;15.10;99.90;;;;;;4933994;29;20440;-68
2021/10/09 14:24:00;;;;;;;1.00;0.70;;;15.10;99.90;;;;;;4933820;29;20421;-66
2021/10/09 14:26:29;;;;;;;1.50;1.13;;;15.10;99.90;;;;;;4935003;29;20476;-66
2021/10/09 14:28:57;;;;;;;1.63;0.70;;;15.20;99.90;;;;;;4937927;29;20396;-68
2021/10/09 14:31:25;;;;;;;1.07;0.70;;;15.20;99.90;;;;;;4936763;29;20541;-68
2021/10/09 14:33:53;;;;;;;1.77;0.80;;;15.20;99.90;;;;;;4936944;29;20850;-67
2021/10/09 14:36:21;;;;;;;1.10;0.70;;;15.20;99.90;;;;;;4936776;29;20399;-68
2021/10/09 14:38:49;;;;;;;0.90;0.60;;;15.20;99.90;;;;;;4936788;29;20500;-68
2021/10/09 14:41:19;;;;;;;1.00;0.60;;;15.10;99.90;;;;;;4936511;29;20445;-69
2021/10/09 14:43:47;;;;;;;1.40;0.80;;;15.10;99.90;;;;;;4936340;29;20438;-67
2021/10/09 14:46:41;;;;;;;1.20;0.80;;;15.00;99.90;;;;;;4936354;29;20432;-68
2021/10/09 14:49:12;;;;;;;1.47;0.90;;;15.00;99.90;;;;;;4935214;29;20422;-66
2021/10/09 14:51:45;;;;;;;1.10;0.70;;;14.90;99.90;;;;;;4938508;29;20482;-68
2021/10/09 14:54:41;;;;;;;0.90;0.47;;;14.90;99.90;;;;;;4937971;29;20912;-67
2021/10/09 15:17:10;;;;;;;2.73;0.73;;;14.70;99.90;;;;;;4913243;29;20419;-67
2021/10/09 15:19:38;;;;;;;2.37;1.37;;;14.60;99.90;;;;;;4914451;29;20438;-69
2021/10/09 15:22:08;;;;;;;1.20;0.87;;;14.60;99.90;;;;;;4939898;28;20538;-67